createdAt,value
2022-11-28T00:00:00.265Z,36.4
2022-11-28T00:01:00.620Z,34.2
2022-11-28T00:02:00.329Z,34.2
2022-11-28T00:03:00.440Z,34.2
2022-11-28T00:04:00.585Z,34.2
2022-11-28T00:05:00.238Z,34.2
2022-11-28T00:06:03.040Z,33.1
2022-11-28T00:07:00.247Z,33.1
2022-11-28T00:08:00.788Z,33.1
2022-11-28T00:09:00.231Z,33.1
2022-11-28T00:10:00.249Z,33.1
2022-11-28T00:11:05.069Z,34.3
2022-11-28T00:12:00.227Z,34.3
2022-11-28T00:13:00.210Z,34.3
2022-11-28T00:14:00.240Z,34.3
2022-11-28T00:15:00.248Z,34.3
2022-11-28T00:16:03.037Z,35.2
2022-11-28T00:17:00.204Z,35.2
2022-11-28T00:18:00.407Z,35.2
2022-11-28T00:19:01.674Z,35.2
2022-11-28T00:20:00.317Z,35.2
2022-11-28T00:21:03.481Z,35.2
2022-11-28T00:22:01.114Z,35.2
2022-11-28T00:23:00.208Z,35.2
2022-11-28T00:24:00.807Z,35.2
2022-11-28T00:25:00.264Z,35.2
2022-11-28T00:26:05.106Z,34.8
2022-11-28T00:27:00.221Z,34.8
2022-11-28T00:28:00.201Z,34.8
2022-11-28T00:29:00.268Z,34.8
2022-11-28T00:30:00.222Z,34.8
2022-11-28T00:31:00.759Z,34.4
2022-11-28T00:32:00.339Z,34.4
2022-11-28T00:33:00.265Z,34.4
2022-11-28T00:34:00.916Z,34.4
2022-11-28T00:35:00.241Z,34.4
2022-11-28T00:36:02.236Z,35.6
2022-11-28T00:37:00.249Z,35.6
2022-11-28T00:38:00.212Z,35.6
2022-11-28T00:39:00.246Z,35.6
2022-11-28T00:40:00.217Z,35.6
2022-11-28T00:41:03.677Z,37.5
2022-11-28T00:42:00.223Z,37.5
2022-11-28T00:43:00.196Z,37.5
2022-11-28T00:44:00.356Z,37.5
2022-11-28T00:45:00.219Z,37.5
2022-11-28T00:46:01.064Z,36.7
2022-11-28T00:47:00.234Z,36.7
2022-11-28T00:48:00.511Z,36.7
2022-11-28T00:49:00.238Z,36.7
2022-11-28T00:50:00.294Z,36.7
2022-11-28T00:51:12.195Z,38.2
2022-11-28T00:52:00.209Z,38.2
2022-11-28T00:53:00.240Z,38.2
2022-11-28T00:54:03.193Z,38.2
2022-11-28T00:55:00.204Z,38.2
2022-11-28T00:56:00.207Z,38.0
2022-11-28T00:57:00.269Z,38.0
2022-11-28T00:58:00.214Z,38.0
2022-11-28T00:59:00.575Z,38.0
2022-11-28T01:00:00.253Z,38.0
2022-11-28T01:01:08.032Z,37.0
2022-11-28T01:02:00.319Z,37.0
2022-11-28T01:03:00.249Z,37.0
2022-11-28T01:04:02.784Z,37.0
2022-11-28T01:05:00.427Z,37.0
2022-11-28T01:06:00.260Z,36.7
2022-11-28T01:07:00.203Z,36.7
2022-11-28T01:08:00.223Z,36.7
2022-11-28T01:09:03.284Z,36.7
2022-11-28T01:10:00.228Z,36.7
2022-11-28T01:11:00.586Z,37.2
2022-11-28T01:12:00.993Z,37.2
2022-11-28T01:13:00.231Z,37.2
2022-11-28T01:14:01.267Z,37.2
2022-11-28T01:15:00.302Z,37.2
2022-11-28T01:16:00.341Z,39.0
2022-11-28T01:17:00.206Z,39.0
2022-11-28T01:18:00.305Z,39.0
2022-11-28T01:19:00.309Z,39.0
2022-11-28T01:20:00.870Z,39.0
2022-11-28T01:21:00.304Z,39.8
2022-11-28T01:22:00.247Z,39.8
2022-11-28T01:23:00.291Z,39.8
2022-11-28T01:24:00.279Z,39.8
2022-11-28T01:25:00.240Z,39.8
2022-11-28T01:26:01.941Z,38.8
2022-11-28T01:27:00.222Z,38.8
2022-11-28T01:28:00.300Z,38.8
2022-11-28T01:29:00.459Z,38.8
2022-11-28T01:30:00.371Z,38.8
2022-11-28T01:31:04.164Z,40.1
2022-11-28T01:32:00.325Z,40.1
2022-11-28T01:33:00.383Z,40.1
2022-11-28T01:34:00.414Z,40.1
2022-11-28T01:35:00.291Z,40.1
2022-11-28T01:36:00.434Z,41.1
2022-11-28T01:37:00.303Z,41.1
2022-11-28T01:38:00.223Z,41.1
2022-11-28T01:39:00.276Z,41.1
2022-11-28T01:40:00.276Z,41.1
2022-11-28T01:41:01.168Z,40.8
2022-11-28T01:42:00.255Z,40.8
2022-11-28T01:43:00.281Z,40.8
2022-11-28T01:44:05.728Z,40.8
2022-11-28T01:45:05.816Z,40.8
2022-11-28T01:46:00.576Z,41.0
2022-11-28T01:47:00.298Z,41.0
2022-11-28T01:48:02.088Z,41.0
2022-11-28T01:49:12.559Z,41.0
2022-11-28T01:50:02.069Z,41.0
2022-11-28T01:51:06.926Z,39.9
2022-11-28T01:52:03.531Z,39.9
2022-11-28T01:53:05.030Z,39.9
2022-11-28T01:54:00.941Z,39.9
2022-11-28T01:55:01.991Z,39.9
2022-11-28T01:56:07.582Z,40.9
2022-11-28T01:57:04.978Z,40.9
2022-11-28T01:58:00.467Z,40.9
2022-11-28T01:59:06.018Z,40.9
2022-11-28T02:00:04.543Z,40.9
2022-11-28T02:01:00.643Z,42.0
2022-11-28T02:02:04.453Z,42.0
2022-11-28T02:03:07.055Z,42.0
2022-11-28T02:04:02.551Z,42.0
2022-11-28T02:05:01.282Z,42.0
2022-11-28T02:06:01.060Z,41.8
2022-11-28T02:07:00.511Z,41.8
2022-11-28T02:08:00.752Z,41.8
2022-11-28T02:09:00.987Z,41.8
2022-11-28T02:10:02.949Z,41.8
2022-11-28T02:11:14.996Z,41.1
2022-11-28T02:12:13.552Z,41.1
2022-11-28T02:13:19.868Z,41.1
2022-11-28T02:14:10.162Z,41.1
2022-11-28T02:15:11.213Z,41.1
2022-11-28T02:16:17.201Z,41.5
2022-11-28T02:17:18.737Z,41.5
2022-11-28T02:18:01.224Z,41.5
2022-11-28T02:19:10.144Z,41.5
2022-11-28T02:20:20.151Z,42.1
2022-11-28T02:21:19.633Z,42.1
2022-11-28T02:22:08.865Z,42.1
2022-11-28T02:23:10.078Z,42.1
2022-11-28T02:24:20.113Z,42.1
2022-11-28T02:25:13.411Z,39.9
2022-11-28T02:26:20.156Z,39.9
2022-11-28T02:27:16.035Z,39.9
2022-11-28T02:28:20.114Z,39.9
2022-11-28T02:29:17.631Z,39.9
2022-11-28T02:30:05.508Z,39.9
2022-11-28T02:31:13.513Z,42.8
2022-11-28T02:32:20.149Z,42.8
2022-11-28T02:33:13.347Z,42.8
2022-11-28T02:34:13.774Z,42.8
2022-11-28T02:35:10.563Z,42.7
2022-11-28T02:36:12.062Z,42.7
2022-11-28T02:37:06.965Z,42.7
2022-11-28T02:38:08.823Z,42.7
2022-11-28T02:39:12.370Z,42.7
2022-11-28T02:40:13.398Z,40.8
2022-11-28T02:41:05.569Z,40.8
2022-11-28T02:42:13.800Z,40.8
2022-11-28T02:43:13.227Z,40.8
2022-11-28T02:44:13.435Z,40.8
2022-11-28T02:45:09.637Z,42.2
2022-11-28T02:46:08.538Z,42.2
2022-11-28T02:47:08.053Z,42.2
2022-11-28T02:48:06.314Z,42.2
2022-11-28T02:49:05.854Z,42.2
2022-11-28T02:50:09.979Z,41.2
2022-11-28T02:51:08.932Z,41.2
2022-11-28T02:52:06.379Z,41.2
2022-11-28T02:53:08.773Z,41.2
2022-11-28T02:54:01.561Z,41.2
2022-11-28T02:55:00.916Z,41.2
2022-11-28T02:56:01.492Z,40.9
2022-11-28T02:57:00.215Z,40.9
2022-11-28T02:58:00.228Z,40.9
2022-11-28T02:59:00.248Z,40.9
2022-11-28T03:00:00.274Z,40.9
2022-11-28T03:01:00.372Z,44.5
2022-11-28T03:02:00.656Z,44.5
2022-11-28T03:03:10.144Z,44.5
2022-11-28T03:04:07.025Z,44.5
2022-11-28T03:05:10.156Z,43.8
2022-11-28T03:06:20.133Z,43.8
2022-11-28T03:07:04.482Z,43.8
2022-11-28T03:08:19.578Z,43.8
2022-11-28T03:09:18.573Z,43.8
2022-11-28T03:10:01.250Z,44.5
2022-11-28T03:11:20.128Z,44.5
2022-11-28T03:12:13.736Z,44.5
2022-11-28T03:13:13.481Z,44.5
2022-11-28T03:14:10.562Z,44.5
2022-11-28T03:15:03.391Z,43.8
2022-11-28T03:16:20.205Z,43.8
2022-11-28T03:17:17.649Z,43.8
2022-11-28T03:18:09.502Z,43.8
2022-11-28T03:19:20.105Z,43.8
2022-11-28T03:20:11.189Z,44.6
2022-11-28T03:21:08.885Z,44.6
2022-11-28T03:22:09.011Z,44.6
2022-11-28T03:23:20.150Z,44.6
2022-11-28T03:24:05.480Z,44.6
2022-11-28T03:25:17.612Z,45.6
2022-11-28T03:26:20.129Z,45.6
2022-11-28T03:27:06.626Z,45.6
2022-11-28T03:28:15.462Z,45.6
2022-11-28T03:29:07.896Z,45.6
2022-11-28T03:30:07.522Z,45.5
2022-11-28T03:31:05.753Z,45.5
2022-11-28T03:32:05.787Z,45.5
2022-11-28T03:33:02.938Z,45.5
2022-11-28T03:34:03.277Z,45.5
2022-11-28T03:35:05.585Z,43.1
2022-11-28T03:36:08.367Z,43.1
2022-11-28T03:37:06.429Z,43.1
2022-11-28T03:38:05.189Z,43.1
2022-11-28T03:39:07.489Z,43.1
2022-11-28T03:40:05.912Z,45.7
2022-11-28T03:41:06.020Z,45.7
2022-11-28T03:42:06.391Z,45.7
2022-11-28T03:43:04.339Z,45.7
2022-11-28T03:44:02.584Z,45.7
2022-11-28T03:45:07.728Z,46.8
2022-11-28T03:46:05.994Z,46.8
2022-11-28T03:47:03.579Z,46.8
2022-11-28T03:48:07.503Z,46.8
2022-11-28T03:49:01.962Z,46.8
2022-11-28T03:50:03.803Z,46.5
2022-11-28T03:51:07.413Z,46.5
2022-11-28T03:52:06.616Z,46.5
2022-11-28T03:53:06.376Z,46.5
2022-11-28T03:54:02.229Z,46.5
2022-11-28T03:55:05.385Z,46.7
2022-11-28T03:56:11.993Z,46.7
2022-11-28T03:57:10.149Z,46.7
2022-11-28T03:58:17.600Z,46.7
2022-11-28T03:59:09.900Z,46.7
2022-11-28T04:00:05.769Z,46.8
2022-11-28T04:01:15.748Z,46.8
2022-11-28T04:02:11.179Z,46.8
2022-11-28T04:03:11.397Z,46.8
2022-11-28T04:04:15.434Z,46.8
2022-11-28T04:05:20.130Z,50.6
2022-11-28T04:06:10.728Z,50.6
2022-11-28T04:07:17.785Z,50.6
2022-11-28T04:08:11.261Z,50.6
2022-11-28T04:09:10.182Z,50.6
2022-11-28T04:10:11.042Z,44.7
2022-11-28T04:11:18.087Z,44.7
2022-11-28T04:12:08.358Z,44.7
2022-11-28T04:13:10.135Z,44.7
2022-11-28T04:14:07.585Z,44.7
2022-11-28T04:15:07.535Z,50.8
2022-11-28T04:16:16.009Z,50.8
2022-11-28T04:17:09.293Z,50.8
2022-11-28T04:18:14.760Z,50.8
2022-11-28T04:19:05.968Z,50.8
2022-11-28T04:20:12.261Z,46.0
2022-11-28T04:21:10.945Z,46.0
2022-11-28T04:22:10.176Z,46.0
2022-11-28T04:23:07.807Z,46.0
2022-11-28T04:24:09.115Z,46.0
2022-11-28T04:25:04.983Z,50.7
2022-11-28T04:26:07.899Z,50.7
2022-11-28T04:27:04.563Z,50.7
2022-11-28T04:28:05.961Z,50.7
2022-11-28T04:29:06.323Z,50.7
2022-11-28T04:30:03.006Z,50.8
2022-11-28T04:31:03.338Z,50.8
2022-11-28T04:32:02.560Z,50.8
2022-11-28T04:33:06.622Z,50.8
2022-11-28T04:34:04.840Z,50.8
2022-11-28T04:35:05.604Z,51.4
2022-11-28T04:36:01.284Z,51.4
2022-11-28T04:37:06.874Z,51.4
2022-11-28T04:38:04.017Z,51.4
2022-11-28T04:39:01.850Z,51.4
2022-11-28T04:40:01.569Z,52.9
2022-11-28T04:41:13.781Z,52.9
2022-11-28T04:42:07.909Z,52.9
2022-11-28T04:43:05.371Z,52.9
2022-11-28T04:44:09.999Z,52.9
2022-11-28T04:45:08.234Z,53.6
2022-11-28T04:46:08.775Z,53.6
2022-11-28T04:47:00.397Z,53.6
2022-11-28T04:48:01.058Z,53.6
2022-11-28T04:49:00.551Z,53.6
2022-11-28T04:50:00.513Z,55.3
2022-11-28T04:51:15.616Z,55.3
2022-11-28T04:52:17.487Z,55.3
2022-11-28T04:53:13.907Z,55.3
2022-11-28T04:54:13.358Z,55.3
2022-11-28T04:55:10.978Z,53.3
2022-11-28T04:56:06.771Z,53.3
2022-11-28T04:57:10.183Z,53.3
2022-11-28T04:58:20.156Z,53.3
2022-11-28T04:59:03.624Z,53.3
2022-11-28T05:00:05.597Z,49.4
2022-11-28T05:01:05.290Z,49.4
2022-11-28T05:02:04.125Z,49.4
2022-11-28T05:03:00.461Z,49.4
2022-11-28T05:04:00.458Z,49.4
2022-11-28T05:05:00.562Z,51.7
2022-11-28T05:06:01.994Z,51.7
2022-11-28T05:07:01.058Z,51.7
2022-11-28T05:08:00.304Z,51.7
2022-11-28T05:09:00.350Z,51.7
2022-11-28T05:10:00.268Z,54.3
2022-11-28T05:11:00.220Z,54.3
2022-11-28T05:12:00.231Z,54.3
2022-11-28T05:13:00.279Z,54.3
2022-11-28T05:14:00.344Z,54.3
2022-11-28T05:15:00.461Z,52.5
2022-11-28T05:16:00.289Z,52.5
2022-11-28T05:17:00.250Z,52.5
2022-11-28T05:18:00.276Z,52.5
2022-11-28T05:19:00.246Z,52.5
2022-11-28T05:20:00.852Z,51.7
2022-11-28T05:21:00.227Z,51.7
2022-11-28T05:22:00.241Z,51.7
2022-11-28T05:23:00.204Z,51.7
2022-11-28T05:24:00.229Z,51.7
2022-11-28T05:25:00.368Z,52.4
2022-11-28T05:26:03.442Z,52.4
2022-11-28T05:27:00.219Z,52.4
2022-11-28T05:28:00.235Z,52.4
2022-11-28T05:29:00.876Z,52.4
2022-11-28T05:30:00.403Z,53.3
2022-11-28T05:31:01.280Z,53.3
2022-11-28T05:32:00.347Z,53.3
2022-11-28T05:33:00.216Z,53.3
2022-11-28T05:34:00.254Z,53.3
2022-11-28T05:35:00.200Z,53.1
2022-11-28T05:36:03.141Z,53.1
2022-11-28T05:37:00.234Z,53.1
2022-11-28T05:38:00.222Z,53.1
2022-11-28T05:39:00.219Z,53.1
2022-11-28T05:40:00.391Z,54.8
2022-11-28T05:41:01.246Z,54.8
2022-11-28T05:42:00.217Z,54.8
2022-11-28T05:43:00.247Z,54.8
2022-11-28T05:44:00.732Z,54.8
2022-11-28T05:45:00.546Z,54.4
2022-11-28T05:46:02.844Z,54.4
2022-11-28T05:47:00.201Z,54.4
2022-11-28T05:48:00.223Z,54.4
2022-11-28T05:49:00.428Z,54.4
2022-11-28T05:50:00.255Z,53.9
2022-11-28T05:51:03.887Z,53.9
2022-11-28T05:52:00.422Z,53.9
2022-11-28T05:53:00.195Z,53.9
2022-11-28T05:54:00.244Z,53.9
2022-11-28T05:55:00.242Z,52.7
2022-11-28T05:56:06.955Z,52.7
2022-11-28T05:57:00.223Z,52.7
2022-11-28T05:58:00.243Z,52.7
2022-11-28T05:59:00.200Z,52.7
2022-11-28T06:00:00.239Z,52.7
2022-11-28T06:01:07.800Z,52.7
2022-11-28T06:02:00.367Z,52.7
2022-11-28T06:03:01.740Z,52.7
2022-11-28T06:04:00.486Z,52.7
2022-11-28T06:05:16.153Z,52.4
2022-11-28T06:06:00.213Z,52.4
2022-11-28T06:07:00.434Z,52.4
2022-11-28T06:08:00.291Z,52.4
2022-11-28T06:09:01.101Z,52.4
2022-11-28T06:10:00.255Z,50.7
2022-11-28T06:11:00.220Z,50.7
2022-11-28T06:12:00.449Z,50.7
2022-11-28T06:13:00.395Z,50.7
2022-11-28T06:14:00.990Z,50.7
2022-11-28T06:15:00.238Z,49.7
2022-11-28T06:16:00.461Z,49.7
2022-11-28T06:17:00.306Z,49.7
2022-11-28T06:18:00.214Z,49.7
2022-11-28T06:19:01.985Z,49.7
2022-11-28T06:20:00.501Z,53.1
2022-11-28T06:21:00.970Z,53.1
2022-11-28T06:22:00.221Z,53.1
2022-11-28T06:23:00.207Z,53.1
2022-11-28T06:24:00.228Z,53.1
2022-11-28T06:25:00.275Z,51.9
2022-11-28T06:26:10.980Z,51.9
2022-11-28T06:27:00.316Z,51.9
2022-11-28T06:28:00.233Z,51.9
2022-11-28T06:29:00.253Z,51.9
2022-11-28T06:30:00.254Z,50.7
2022-11-28T06:31:00.482Z,50.7
2022-11-28T06:32:00.310Z,50.7
2022-11-28T06:33:00.263Z,50.7
2022-11-28T06:34:00.228Z,50.7
2022-11-28T06:35:00.193Z,43.5
2022-11-28T06:36:03.026Z,43.5
2022-11-28T06:37:00.231Z,43.5
2022-11-28T06:38:00.243Z,43.5
2022-11-28T06:39:00.221Z,43.5
2022-11-28T06:40:00.239Z,50.2
2022-11-28T06:41:05.225Z,50.2
2022-11-28T06:42:00.298Z,50.2
2022-11-28T06:43:00.220Z,50.2
2022-11-28T06:44:00.237Z,50.2
2022-11-28T06:45:00.223Z,50.6
2022-11-28T06:46:00.858Z,50.6
2022-11-28T06:47:00.235Z,50.6
2022-11-28T06:48:00.696Z,50.6
2022-11-28T06:49:00.223Z,50.6
2022-11-28T06:50:00.298Z,53.4
2022-11-28T06:51:02.447Z,53.4
2022-11-28T06:52:00.259Z,53.4
2022-11-28T06:53:00.216Z,53.4
2022-11-28T06:54:00.214Z,53.4
2022-11-28T06:55:00.336Z,55.3
2022-11-28T06:56:10.221Z,55.3
2022-11-28T06:57:00.224Z,55.3
2022-11-28T06:58:00.265Z,55.3
2022-11-28T06:59:00.384Z,55.3
2022-11-28T07:00:00.266Z,56.4
2022-11-28T07:01:11.292Z,56.4
2022-11-28T07:02:05.700Z,56.4
2022-11-28T07:03:00.246Z,56.4
2022-11-28T07:04:00.291Z,56.4
2022-11-28T07:05:00.352Z,61.7
2022-11-28T07:06:01.351Z,61.7
2022-11-28T07:07:00.444Z,61.7
2022-11-28T07:08:00.356Z,61.7
2022-11-28T07:09:00.229Z,61.7
2022-11-28T07:10:00.279Z,56.2
2022-11-28T07:11:09.771Z,56.2
2022-11-28T07:12:00.263Z,56.2
2022-11-28T07:13:04.869Z,56.2
2022-11-28T07:14:02.201Z,56.2
2022-11-28T07:15:00.244Z,55.5
2022-11-28T07:16:00.257Z,55.5
2022-11-28T07:17:00.336Z,55.5
2022-11-28T07:18:00.220Z,55.5
2022-11-28T07:19:00.703Z,55.5
2022-11-28T07:20:00.379Z,55.0
2022-11-28T07:21:00.396Z,55.0
2022-11-28T07:22:00.294Z,55.0
2022-11-28T07:23:00.190Z,55.0
2022-11-28T07:24:00.222Z,55.0
2022-11-28T07:25:00.251Z,54.5
2022-11-28T07:26:01.835Z,54.5
2022-11-28T07:27:00.239Z,54.5
2022-11-28T07:28:00.237Z,54.5
2022-11-28T07:29:00.218Z,54.5
2022-11-28T07:30:00.382Z,51.9
2022-11-28T07:31:03.051Z,51.9
2022-11-28T07:32:00.627Z,51.9
2022-11-28T07:33:00.363Z,51.9
2022-11-28T07:34:01.467Z,51.9
2022-11-28T07:35:00.282Z,54.2
2022-11-28T07:36:01.954Z,54.2
2022-11-28T07:37:00.309Z,54.2
2022-11-28T07:38:00.291Z,54.2
2022-11-28T07:39:02.910Z,54.2
2022-11-28T07:40:00.238Z,50.9
2022-11-28T07:41:02.424Z,50.9
2022-11-28T07:42:00.211Z,50.9
2022-11-28T07:43:00.289Z,50.9
2022-11-28T07:44:01.759Z,50.9
2022-11-28T07:45:00.251Z,58.3
2022-11-28T07:46:05.601Z,58.3
2022-11-28T07:47:00.259Z,58.3
2022-11-28T07:48:00.223Z,58.3
2022-11-28T07:49:01.163Z,58.3
2022-11-28T07:50:00.303Z,56.8
2022-11-28T07:51:05.579Z,56.8
2022-11-28T07:52:00.212Z,56.8
2022-11-28T07:53:05.640Z,56.8
2022-11-28T07:54:01.281Z,56.8
2022-11-28T07:55:00.235Z,58.4
2022-11-28T07:56:02.218Z,58.4
2022-11-28T07:58:00.253Z,58.4
2022-11-28T07:59:03.359Z,58.4
2022-11-28T08:00:00.440Z,58.8
2022-11-28T08:01:07.530Z,58.8
2022-11-28T08:02:00.250Z,58.8
2022-11-28T08:03:00.233Z,58.8
2022-11-28T08:04:01.661Z,58.8
2022-11-28T08:05:00.358Z,62.0
2022-11-28T08:06:02.888Z,62.0
2022-11-28T08:07:00.275Z,62.0
2022-11-28T08:08:00.309Z,62.0
2022-11-28T08:09:00.350Z,62.0
2022-11-28T08:10:00.401Z,55.9
2022-11-28T08:11:02.533Z,55.9
2022-11-28T08:12:00.294Z,55.9
2022-11-28T08:13:00.236Z,55.9
2022-11-28T08:14:00.830Z,55.9
2022-11-28T08:15:00.395Z,55.0
2022-11-28T08:16:05.117Z,55.0
2022-11-28T08:17:00.295Z,55.0
2022-11-28T08:18:00.285Z,55.0
2022-11-28T08:19:00.925Z,55.0
2022-11-28T08:20:00.333Z,54.7
2022-11-28T08:21:02.310Z,54.7
2022-11-28T08:22:00.224Z,54.7
2022-11-28T08:23:00.221Z,54.7
2022-11-28T08:24:01.669Z,50.3
2022-11-28T08:25:00.265Z,50.3
2022-11-28T08:26:01.339Z,50.3
2022-11-28T08:27:00.217Z,50.3
2022-11-28T08:28:00.294Z,50.3
2022-11-28T08:29:01.813Z,53.9
2022-11-28T08:30:00.237Z,53.9
2022-11-28T08:31:08.800Z,53.9
2022-11-28T08:32:00.224Z,53.9
2022-11-28T08:33:00.203Z,53.9
2022-11-28T08:34:02.398Z,48.7
2022-11-28T08:35:00.397Z,48.7
2022-11-28T08:36:04.904Z,48.7
2022-11-28T08:37:00.222Z,48.7
2022-11-28T08:38:02.073Z,48.7
2022-11-28T08:40:00.293Z,47.9
2022-11-28T08:41:01.717Z,47.9
2022-11-28T08:42:00.257Z,47.9
2022-11-28T08:43:00.248Z,47.9
2022-11-28T08:44:00.248Z,47.2
2022-11-28T08:45:00.290Z,47.2
2022-11-28T08:46:00.312Z,47.2
2022-11-28T08:47:00.224Z,47.2
2022-11-28T08:48:00.410Z,47.2
2022-11-28T08:49:00.214Z,43.9
2022-11-28T08:50:00.276Z,43.9
2022-11-28T08:51:00.519Z,43.9
2022-11-28T08:52:01.639Z,43.9
2022-11-28T08:54:00.413Z,43.9
2022-11-28T08:55:00.219Z,43.9
2022-11-28T08:56:00.256Z,43.9
2022-11-28T08:57:00.249Z,43.9
2022-11-28T08:58:00.237Z,43.9
2022-11-28T08:59:00.940Z,45.3
2022-11-28T09:00:00.235Z,45.3
2022-11-28T09:01:00.311Z,45.3
2022-11-28T09:02:00.296Z,45.3
2022-11-28T09:03:00.222Z,45.3
2022-11-28T09:04:00.338Z,42.5
2022-11-28T09:05:00.261Z,42.5
2022-11-28T09:06:00.956Z,42.5
2022-11-28T09:07:00.210Z,42.5
2022-11-28T09:08:00.364Z,42.5
2022-11-28T09:09:00.223Z,41.1
2022-11-28T09:10:00.211Z,41.1
2022-11-28T09:11:00.285Z,41.1
2022-11-28T09:12:00.351Z,41.1
2022-11-28T09:13:00.253Z,41.1
2022-11-28T09:14:00.255Z,40.3
2022-11-28T09:15:00.248Z,40.3
2022-11-28T09:16:00.466Z,40.3
2022-11-28T09:17:00.458Z,40.3
2022-11-28T09:18:00.281Z,40.3
2022-11-28T09:19:00.221Z,41.5
2022-11-28T09:20:00.272Z,41.5
2022-11-28T09:21:02.212Z,41.5
2022-11-28T09:22:00.235Z,41.5
2022-11-28T09:23:00.403Z,41.5
2022-11-28T09:24:00.348Z,42.3
2022-11-28T09:25:00.299Z,42.3
2022-11-28T09:26:00.656Z,42.3
2022-11-28T09:27:01.560Z,42.3
2022-11-28T09:28:00.238Z,42.3
2022-11-28T09:29:00.222Z,41.9
2022-11-28T09:30:00.318Z,41.9
2022-11-28T09:31:02.208Z,41.9
2022-11-28T09:32:00.271Z,41.9
2022-11-28T09:33:00.260Z,41.9
2022-11-28T09:34:00.253Z,41.5
2022-11-28T09:35:00.276Z,41.5
2022-11-28T09:36:04.914Z,41.5
2022-11-28T09:37:04.683Z,41.5
2022-11-28T09:38:00.352Z,41.5
2022-11-28T09:39:00.736Z,42.8
2022-11-28T09:40:13.536Z,42.8
2022-11-28T09:41:01.400Z,42.8
2022-11-28T09:42:13.374Z,42.8
2022-11-28T09:43:02.027Z,42.8
2022-11-28T09:44:20.120Z,42.6
2022-11-28T09:45:13.439Z,42.6
2022-11-28T09:46:04.676Z,42.6
2022-11-28T09:47:05.618Z,42.6
2022-11-28T09:48:12.276Z,42.6
2022-11-28T09:49:08.245Z,39.2
2022-11-28T09:50:13.198Z,39.2
2022-11-28T09:51:07.050Z,39.2
2022-11-28T09:52:13.466Z,39.2
2022-11-28T09:53:11.603Z,39.2
2022-11-28T09:54:14.301Z,40.1
2022-11-28T09:55:09.887Z,40.1
2022-11-28T09:56:10.775Z,40.1
2022-11-28T09:57:02.626Z,40.1
2022-11-28T09:58:05.278Z,40.1
2022-11-28T09:59:00.841Z,39.8
2022-11-28T10:00:00.768Z,39.8
2022-11-28T10:01:20.135Z,39.8
2022-11-28T10:02:16.720Z,39.8
2022-11-28T10:03:11.254Z,39.8
2022-11-28T10:04:04.697Z,37.5
2022-11-28T10:05:13.057Z,37.5
2022-11-28T10:06:20.146Z,37.5
2022-11-28T10:07:17.327Z,37.5
2022-11-28T10:08:18.226Z,37.5
2022-11-28T10:09:20.118Z,35.8
2022-11-28T10:10:10.174Z,35.8
2022-11-28T10:11:13.416Z,35.8
2022-11-28T10:12:19.310Z,35.8
2022-11-28T10:13:11.156Z,35.8
2022-11-28T10:14:14.901Z,37.3
2022-11-28T10:15:11.178Z,37.3
2022-11-28T10:16:11.003Z,37.3
2022-11-28T10:17:10.251Z,37.3
2022-11-28T10:18:10.063Z,37.3
2022-11-28T10:19:15.919Z,37.9
2022-11-28T10:20:10.263Z,37.9
2022-11-28T10:21:07.460Z,37.9
2022-11-28T10:22:04.045Z,37.9
2022-11-28T10:23:06.633Z,37.9
2022-11-28T10:24:04.872Z,38.4
2022-11-28T10:25:06.794Z,38.4
2022-11-28T10:26:05.536Z,38.4
2022-11-28T10:27:03.181Z,38.4
2022-11-28T10:28:05.496Z,38.4
2022-11-28T10:29:03.741Z,36.6
2022-11-28T10:30:15.236Z,36.6
2022-11-28T10:31:11.299Z,36.6
2022-11-28T10:32:03.259Z,36.6
2022-11-28T10:33:18.196Z,36.6
2022-11-28T10:34:07.531Z,31.8
2022-11-28T10:35:06.058Z,31.8
2022-11-28T10:36:02.105Z,31.8
2022-11-28T10:37:13.789Z,31.8
2022-11-28T10:38:00.278Z,31.8
2022-11-28T10:39:11.392Z,31.7
2022-11-28T10:40:14.919Z,31.7
2022-11-28T10:41:17.502Z,31.7
2022-11-28T10:42:04.031Z,31.7
2022-11-28T10:43:13.979Z,31.7
2022-11-28T10:44:21.186Z,29.0
2022-11-28T10:45:20.137Z,29.0
2022-11-28T10:46:10.313Z,29.0
2022-11-28T10:47:13.737Z,29.0
2022-11-28T10:48:37.239Z,29.0
2022-11-28T10:49:15.960Z,28.0
2022-11-28T10:50:10.150Z,28.0
2022-11-28T10:51:20.114Z,28.0
2022-11-28T10:52:10.153Z,28.0
2022-11-28T10:53:09.654Z,28.0
2022-11-28T10:54:20.184Z,27.4
2022-11-28T10:55:15.880Z,27.4
2022-11-28T10:56:11.741Z,27.4
2022-11-28T10:57:08.164Z,27.4
2022-11-28T10:58:20.118Z,27.4
2022-11-28T10:59:12.677Z,26.9
2022-11-28T11:00:11.912Z,26.9
2022-11-28T11:01:01.618Z,26.9
2022-11-28T11:02:13.621Z,26.9
2022-11-28T11:03:02.179Z,26.9
2022-11-28T11:04:00.335Z,24.1
2022-11-28T11:05:00.355Z,24.1
2022-11-28T11:06:01.812Z,24.1
2022-11-28T11:07:19.121Z,24.1
2022-11-28T11:08:20.206Z,24.1
2022-11-28T11:09:00.250Z,23.3
2022-11-28T11:10:14.039Z,23.3
2022-11-28T11:11:05.414Z,23.3
2022-11-28T11:12:00.333Z,23.3
2022-11-28T11:13:11.758Z,23.3
2022-11-28T11:14:06.563Z,25.0
2022-11-28T11:15:14.801Z,25.0
2022-11-28T11:16:04.742Z,25.0
2022-11-28T11:17:00.315Z,25.0
2022-11-28T11:18:03.984Z,25.0
2022-11-28T11:19:00.209Z,24.7
2022-11-28T11:20:00.743Z,24.7
2022-11-28T11:21:20.113Z,24.7
2022-11-28T11:22:05.707Z,24.7
2022-11-28T11:23:09.960Z,24.7
2022-11-28T11:24:14.344Z,24.0
2022-11-28T11:25:05.316Z,24.0
2022-11-28T11:26:00.834Z,24.0
2022-11-28T11:27:03.574Z,24.0
2022-11-28T11:28:03.355Z,24.0
2022-11-28T11:29:01.426Z,23.8
2022-11-28T11:30:10.811Z,23.8
2022-11-28T11:31:03.731Z,23.8
2022-11-28T11:32:01.760Z,23.8
2022-11-28T11:33:03.720Z,23.8
2022-11-28T11:34:03.475Z,23.3
2022-11-28T11:35:00.541Z,23.3
2022-11-28T11:36:03.408Z,23.3
2022-11-28T11:37:18.904Z,23.3
2022-11-28T11:38:20.157Z,23.3
2022-11-28T11:39:10.148Z,23.2
2022-11-28T11:40:01.876Z,23.2
2022-11-28T11:41:20.125Z,23.2
2022-11-28T11:42:00.193Z,23.2
2022-11-28T11:43:00.289Z,23.2
2022-11-28T11:44:13.429Z,21.6
2022-11-28T11:45:20.127Z,21.6
2022-11-28T11:46:12.388Z,21.6
2022-11-28T11:47:09.284Z,21.6
2022-11-28T11:48:01.319Z,21.6
2022-11-28T11:49:00.208Z,19.7
2022-11-28T11:50:04.228Z,19.7
2022-11-28T11:51:00.293Z,19.7
2022-11-28T11:52:12.149Z,19.7
2022-11-28T11:53:01.565Z,19.7
2022-11-28T11:54:03.371Z,20.3
2022-11-28T11:55:08.905Z,20.3
2022-11-28T11:56:02.373Z,20.3
2022-11-28T11:57:30.686Z,20.3
2022-11-28T11:58:05.716Z,20.3
2022-11-28T11:59:01.997Z,18.4
2022-11-28T12:00:11.359Z,18.4
2022-11-28T12:01:01.346Z,18.4
2022-11-28T12:02:13.052Z,18.4
2022-11-28T12:03:11.694Z,18.4
2022-11-28T12:04:17.779Z,19.8
2022-11-28T12:05:07.969Z,19.8
2022-11-28T12:06:15.387Z,19.8
2022-11-28T12:07:04.683Z,19.8
2022-11-28T12:08:05.342Z,19.8
2022-11-28T12:09:20.128Z,20.9
2022-11-28T12:10:04.592Z,20.9
2022-11-28T12:11:20.135Z,20.9
2022-11-28T12:12:08.518Z,20.9
2022-11-28T12:13:01.459Z,20.9
2022-11-28T12:14:20.119Z,19.3
2022-11-28T12:15:00.364Z,19.3
2022-11-28T12:16:04.671Z,19.3
2022-11-28T12:17:46.918Z,19.3
2022-11-28T12:18:11.201Z,19.3
2022-11-28T12:19:17.534Z,20.6
2022-11-28T12:20:10.141Z,20.6
2022-11-28T12:21:12.089Z,20.6
2022-11-28T12:22:12.352Z,20.6
2022-11-28T12:23:20.173Z,20.7
2022-11-28T12:24:14.576Z,20.7
2022-11-28T12:25:10.415Z,20.7
2022-11-28T12:26:11.187Z,20.7
2022-11-28T12:27:12.815Z,20.7
2022-11-28T12:28:20.130Z,21.0
2022-11-28T12:30:20.113Z,21.0
2022-11-28T12:31:20.201Z,21.0
2022-11-28T12:32:10.176Z,21.0
2022-11-28T12:33:10.207Z,21.0
2022-11-28T12:34:17.576Z,22.1
2022-11-28T12:35:18.906Z,22.1
2022-11-28T12:36:09.203Z,22.1
2022-11-28T12:37:10.163Z,22.1
2022-11-28T12:38:11.876Z,22.1
2022-11-28T12:39:13.524Z,20.1
2022-11-28T12:40:17.977Z,20.1
2022-11-28T12:41:10.317Z,20.1
2022-11-28T12:42:19.256Z,20.1
2022-11-28T12:43:10.210Z,20.1
2022-11-28T12:44:20.135Z,22.5
2022-11-28T12:45:10.158Z,22.5
2022-11-28T12:46:10.161Z,22.5
2022-11-28T12:47:10.783Z,22.5
2022-11-28T12:48:04.672Z,22.5
2022-11-28T12:49:19.411Z,22.0
2022-11-28T12:50:11.186Z,22.0
2022-11-28T12:51:11.464Z,22.0
2022-11-28T12:52:18.074Z,22.0
2022-11-28T12:53:18.752Z,21.7
2022-11-28T12:54:20.114Z,21.7
2022-11-28T12:55:10.174Z,21.7
2022-11-28T12:56:20.131Z,21.7
2022-11-28T12:57:20.136Z,21.7
2022-11-28T12:58:08.773Z,21.7
2022-11-28T12:59:01.228Z,21.2
2022-11-28T13:00:09.113Z,21.2
2022-11-28T13:01:19.235Z,21.2
2022-11-28T13:02:20.223Z,21.2
2022-11-28T13:03:20.257Z,19.7
2022-11-28T13:04:12.205Z,19.7
2022-11-28T13:05:16.145Z,19.7
2022-11-28T13:06:20.134Z,19.7
2022-11-28T13:07:07.757Z,19.7
2022-11-28T13:08:10.190Z,19.7
2022-11-28T13:09:20.132Z,19.7
2022-11-28T13:10:19.979Z,19.7
2022-11-28T13:11:10.152Z,19.7
2022-11-28T13:12:04.279Z,19.7
2022-11-28T13:13:06.776Z,19.7
2022-11-28T13:14:16.587Z,21.0
2022-11-28T13:15:08.976Z,21.0
2022-11-28T13:16:01.277Z,21.0
2022-11-28T13:17:13.631Z,21.0
2022-11-28T13:18:10.218Z,20.7
2022-11-28T13:19:13.999Z,20.7
2022-11-28T13:20:13.541Z,20.7
2022-11-28T13:21:09.063Z,20.7
2022-11-28T13:22:10.782Z,20.7